sensor_id;sensor_type;location;lat;lon;timestamp;P1;durP1;ratioP1;P2;durP2;ratioP2
72354;SDS011;60314;55.040;73.076;2022-07-12T00:01:32;6.18;;;4.38;;
72354;SDS011;60314;55.040;73.076;2022-07-12T00:04:04;6.57;;;4.45;;
72354;SDS011;60314;55.040;73.076;2022-07-12T00:06:31;7.00;;;4.45;;
72354;SDS011;60314;55.040;73.076;2022-07-12T00:09:07;7.43;;;4.70;;
72354;SDS011;60314;55.040;73.076;2022-07-12T00:11:36;6.78;;;4.18;;
72354;SDS011;60314;55.040;73.076;2022-07-12T00:14:03;7.43;;;4.68;;
72354;SDS011;60314;55.040;73.076;2022-07-12T00:16:35;10.25;;;4.47;;
72354;SDS011;60314;55.040;73.076;2022-07-12T00:19:02;10.82;;;4.55;;
72354;SDS011;60314;55.040;73.076;2022-07-12T00:21:29;10.95;;;4.57;;
72354;SDS011;60314;55.040;73.076;2022-07-12T00:23:56;8.05;;;4.90;;
72354;SDS011;60314;55.040;73.076;2022-07-12T00:26:22;9.98;;;4.47;;
72354;SDS011;60314;55.040;73.076;2022-07-12T00:28:49;5.63;;;4.10;;
72354;SDS011;60314;55.040;73.076;2022-07-12T00:31:25;7.32;;;4.07;;
72354;SDS011;60314;55.040;73.076;2022-07-12T00:33:52;8.18;;;4.18;;
72354;SDS011;60314;55.040;73.076;2022-07-12T00:36:19;8.27;;;4.13;;
72354;SDS011;60314;55.040;73.076;2022-07-12T00:38:50;7.90;;;4.10;;
72354;SDS011;60314;55.040;73.076;2022-07-12T00:41:16;5.47;;;3.90;;
72354;SDS011;60314;55.040;73.076;2022-07-12T00:43:43;6.30;;;4.15;;
72354;SDS011;60314;55.040;73.076;2022-07-12T00:46:09;7.68;;;4.00;;
72354;SDS011;60314;55.040;73.076;2022-07-12T00:48:38;6.30;;;4.40;;
72354;SDS011;60314;55.040;73.076;2022-07-12T00:51:07;8.38;;;4.50;;
72354;SDS011;60314;55.040;73.076;2022-07-12T00:53:34;9.20;;;4.40;;
72354;SDS011;60314;55.040;73.076;2022-07-12T00:56:12;7.57;;;3.75;;
72354;SDS011;60314;55.040;73.076;2022-07-12T00:58:41;8.68;;;4.50;;
72354;SDS011;60314;55.040;73.076;2022-07-12T01:01:13;8.00;;;4.55;;
72354;SDS011;60314;55.040;73.076;2022-07-12T01:03:40;5.70;;;4.18;;
72354;SDS011;60314;55.040;73.076;2022-07-12T01:06:08;6.57;;;4.43;;
72354;SDS011;60314;55.040;73.076;2022-07-12T01:08:34;7.72;;;4.18;;
72354;SDS011;60314;55.040;73.076;2022-07-12T01:11:02;6.45;;;4.15;;
72354;SDS011;60314;55.040;73.076;2022-07-12T01:13:35;6.15;;;4.30;;
72354;SDS011;60314;55.040;73.076;2022-07-12T01:16:04;6.50;;;4.30;;
72354;SDS011;60314;55.040;73.076;2022-07-12T01:18:33;9.88;;;4.00;;
72354;SDS011;60314;55.040;73.076;2022-07-12T01:21:01;10.27;;;4.78;;
72354;SDS011;60314;55.040;73.076;2022-07-12T01:23:31;12.45;;;4.13;;
72354;SDS011;60314;55.040;73.076;2022-07-12T01:25:58;9.07;;;4.30;;
72354;SDS011;60314;55.040;73.076;2022-07-12T01:28:24;7.15;;;4.43;;
72354;SDS011;60314;55.040;73.076;2022-07-12T01:30:52;9.50;;;4.00;;
72354;SDS011;60314;55.040;73.076;2022-07-12T01:33:18;10.88;;;4.20;;
72354;SDS011;60314;55.040;73.076;2022-07-12T01:35:45;8.38;;;4.63;;
72354;SDS011;60314;55.040;73.076;2022-07-12T01:38:13;11.60;;;4.72;;
72354;SDS011;60314;55.040;73.076;2022-07-12T01:40:40;7.20;;;4.00;;
72354;SDS011;60314;55.040;73.076;2022-07-12T01:43:07;7.22;;;4.32;;
72354;SDS011;60314;55.040;73.076;2022-07-12T01:45:33;8.88;;;5.28;;
72354;SDS011;60314;55.040;73.076;2022-07-12T01:48:00;16.25;;;5.82;;
72354;SDS011;60314;55.040;73.076;2022-07-12T01:50:26;7.55;;;4.55;;
72354;SDS011;60314;55.040;73.076;2022-07-12T01:52:52;8.85;;;4.47;;
72354;SDS011;60314;55.040;73.076;2022-07-12T01:55:19;11.27;;;5.25;;
72354;SDS011;60314;55.040;73.076;2022-07-12T01:57:47;11.15;;;5.05;;
72354;SDS011;60314;55.040;73.076;2022-07-12T02:00:14;10.32;;;4.97;;
72354;SDS011;60314;55.040;73.076;2022-07-12T02:02:40;8.63;;;4.93;;
72354;SDS011;60314;55.040;73.076;2022-07-12T02:05:07;11.23;;;4.70;;
72354;SDS011;60314;55.040;73.076;2022-07-12T02:07:34;17.67;;;5.00;;
72354;SDS011;60314;55.040;73.076;2022-07-12T02:10:02;14.65;;;5.57;;
72354;SDS011;60314;55.040;73.076;2022-07-12T02:12:31;15.48;;;5.38;;
72354;SDS011;60314;55.040;73.076;2022-07-12T02:15:00;8.60;;;4.60;;
72354;SDS011;60314;55.040;73.076;2022-07-12T02:17:26;7.63;;;4.68;;
72354;SDS011;60314;55.040;73.076;2022-07-12T02:20:01;11.07;;;4.80;;
72354;SDS011;60314;55.040;73.076;2022-07-12T02:22:29;13.02;;;4.63;;
72354;SDS011;60314;55.040;73.076;2022-07-12T02:24:55;13.85;;;4.30;;
72354;SDS011;60314;55.040;73.076;2022-07-12T02:27:22;8.93;;;4.20;;
72354;SDS011;60314;55.040;73.076;2022-07-12T02:29:49;9.45;;;4.65;;
72354;SDS011;60314;55.040;73.076;2022-07-12T02:32:16;8.30;;;3.88;;
72354;SDS011;60314;55.040;73.076;2022-07-12T02:34:42;8.77;;;4.22;;
72354;SDS011;60314;55.040;73.076;2022-07-12T02:37:10;9.00;;;4.13;;
72354;SDS011;60314;55.040;73.076;2022-07-12T02:39:36;8.13;;;4.15;;
72354;SDS011;60314;55.040;73.076;2022-07-12T02:42:03;7.85;;;3.30;;
72354;SDS011;60314;55.040;73.076;2022-07-12T02:44:30;5.57;;;3.42;;
72354;SDS011;60314;55.040;73.076;2022-07-12T02:47:14;6.45;;;3.35;;
72354;SDS011;60314;55.040;73.076;2022-07-12T02:49:41;6.25;;;3.20;;
72354;SDS011;60314;55.040;73.076;2022-07-12T02:52:07;6.90;;;3.10;;
72354;SDS011;60314;55.040;73.076;2022-07-12T02:57:05;5.47;;;3.10;;
72354;SDS011;60314;55.040;73.076;2022-07-12T02:59:36;7.13;;;2.72;;
72354;SDS011;60314;55.040;73.076;2022-07-12T03:02:02;6.55;;;2.75;;
72354;SDS011;60314;55.040;73.076;2022-07-12T03:04:38;7.00;;;3.05;;
72354;SDS011;60314;55.040;73.076;2022-07-12T03:07:04;6.90;;;2.83;;
72354;SDS011;60314;55.040;73.076;2022-07-12T03:09:30;5.13;;;2.80;;
72354;SDS011;60314;55.040;73.076;2022-07-12T03:11:57;5.78;;;2.40;;
72354;SDS011;60314;55.040;73.076;2022-07-12T03:14:42;4.57;;;2.58;;
72354;SDS011;60314;55.040;73.076;2022-07-12T03:17:08;6.93;;;2.45;;
72354;SDS011;60314;55.040;73.076;2022-07-12T03:19:35;6.55;;;2.50;;
72354;SDS011;60314;55.040;73.076;2022-07-12T03:22:02;8.07;;;2.47;;
72354;SDS011;60314;55.040;73.076;2022-07-12T03:24:49;5.13;;;2.72;;
72354;SDS011;60314;55.040;73.076;2022-07-12T03:27:16;6.30;;;3.00;;
72354;SDS011;60314;55.040;73.076;2022-07-12T03:29:43;6.00;;;2.80;;
72354;SDS011;60314;55.040;73.076;2022-07-12T03:32:10;5.45;;;2.90;;
72354;SDS011;60314;55.040;73.076;2022-07-12T03:34:37;5.53;;;2.90;;
72354;SDS011;60314;55.040;73.076;2022-07-12T03:37:03;6.72;;;2.83;;
72354;SDS011;60314;55.040;73.076;2022-07-12T03:39:30;4.93;;;2.90;;
72354;SDS011;60314;55.040;73.076;2022-07-12T03:41:56;5.05;;;2.85;;
72354;SDS011;60314;55.040;73.076;2022-07-12T03:44:46;5.80;;;2.78;;
72354;SDS011;60314;55.040;73.076;2022-07-12T03:47:24;6.65;;;3.13;;
72354;SDS011;60314;55.040;73.076;2022-07-12T03:49:50;5.45;;;3.30;;
72354;SDS011;60314;55.040;73.076;2022-07-12T03:52:17;6.22;;;3.30;;
72354;SDS011;60314;55.040;73.076;2022-07-12T03:54:44;5.35;;;3.08;;
72354;SDS011;60314;55.040;73.076;2022-07-12T03:57:10;5.28;;;3.60;;
72354;SDS011;60314;55.040;73.076;2022-07-12T03:59:40;6.55;;;3.72;;
72354;SDS011;60314;55.040;73.076;2022-07-12T04:02:13;5.57;;;3.42;;
72354;SDS011;60314;55.040;73.076;2022-07-12T04:04:39;10.93;;;3.67;;
72354;SDS011;60314;55.040;73.076;2022-07-12T04:07:07;6.97;;;3.25;;
72354;SDS011;60314;55.040;73.076;2022-07-12T04:09:33;4.25;;;3.00;;
72354;SDS011;60314;55.040;73.076;2022-07-12T04:12:00;5.18;;;3.13;;
72354;SDS011;60314;55.040;73.076;2022-07-12T04:14:27;4.70;;;2.67;;
72354;SDS011;60314;55.040;73.076;2022-07-12T04:17:00;4.97;;;2.72;;
72354;SDS011;60314;55.040;73.076;2022-07-12T04:19:26;7.10;;;2.97;;
72354;SDS011;60314;55.040;73.076;2022-07-12T04:21:57;4.25;;;3.00;;
72354;SDS011;60314;55.040;73.076;2022-07-12T04:24:35;4.95;;;2.80;;
72354;SDS011;60314;55.040;73.076;2022-07-12T04:27:01;5.43;;;2.80;;
72354;SDS011;60314;55.040;73.076;2022-07-12T04:29:28;3.35;;;2.35;;
72354;SDS011;60314;55.040;73.076;2022-07-12T04:31:54;4.65;;;3.10;;
72354;SDS011;60314;55.040;73.076;2022-07-12T04:34:20;5.10;;;2.55;;
72354;SDS011;60314;55.040;73.076;2022-07-12T04:36:47;7.05;;;2.72;;
72354;SDS011;60314;55.040;73.076;2022-07-12T04:39:15;4.85;;;2.88;;
72354;SDS011;60314;55.040;73.076;2022-07-12T04:41:41;4.15;;;2.85;;
72354;SDS011;60314;55.040;73.076;2022-07-12T04:44:14;5.80;;;2.80;;
72354;SDS011;60314;55.040;73.076;2022-07-12T04:46:51;3.70;;;2.63;;
72354;SDS011;60314;55.040;73.076;2022-07-12T04:49:17;5.13;;;2.72;;
72354;SDS011;60314;55.040;73.076;2022-07-12T04:51:45;7.13;;;3.42;;
72354;SDS011;60314;55.040;73.076;2022-07-12T04:54:22;4.00;;;2.50;;
72354;SDS011;60314;55.040;73.076;2022-07-12T04:56:48;3.85;;;2.38;;
72354;SDS011;60314;55.040;73.076;2022-07-12T04:59:26;6.97;;;2.63;;
72354;SDS011;60314;55.040;73.076;2022-07-12T05:01:53;6.10;;;2.97;;
72354;SDS011;60314;55.040;73.076;2022-07-12T05:04:31;3.80;;;2.75;;
72354;SDS011;60314;55.040;73.076;2022-07-12T05:06:58;6.32;;;2.90;;
72354;SDS011;60314;55.040;73.076;2022-07-12T05:09:24;5.40;;;2.88;;
72354;SDS011;60314;55.040;73.076;2022-07-12T05:11:55;3.60;;;2.40;;
72354;SDS011;60314;55.040;73.076;2022-07-12T05:14:22;4.40;;;2.88;;
72354;SDS011;60314;55.040;73.076;2022-07-12T05:16:48;4.65;;;2.92;;
72354;SDS011;60314;55.040;73.076;2022-07-12T05:19:33;4.25;;;2.95;;
72354;SDS011;60314;55.040;73.076;2022-07-12T05:22:00;7.70;;;3.10;;
72354;SDS011;60314;55.040;73.076;2022-07-12T05:24:33;4.75;;;3.15;;
72354;SDS011;60314;55.040;73.076;2022-07-12T05:27:07;4.45;;;3.15;;
72354;SDS011;60314;55.040;73.076;2022-07-12T05:29:33;5.93;;;3.13;;
72354;SDS011;60314;55.040;73.076;2022-07-12T05:32:00;4.35;;;3.05;;
72354;SDS011;60314;55.040;73.076;2022-07-12T05:34:31;5.25;;;2.90;;
72354;SDS011;60314;55.040;73.076;2022-07-12T05:36:59;7.22;;;3.08;;
72354;SDS011;60314;55.040;73.076;2022-07-12T05:39:27;5.13;;;2.88;;
72354;SDS011;60314;55.040;73.076;2022-07-12T05:41:55;5.95;;;3.33;;
72354;SDS011;60314;55.040;73.076;2022-07-12T05:44:22;6.63;;;3.50;;
72354;SDS011;60314;55.040;73.076;2022-07-12T05:46:49;7.75;;;3.30;;
72354;SDS011;60314;55.040;73.076;2022-07-12T05:49:22;20.73;;;4.03;;
72354;SDS011;60314;55.040;73.076;2022-07-12T05:51:49;6.22;;;3.17;;
72354;SDS011;60314;55.040;73.076;2022-07-12T05:54:44;5.57;;;3.65;;
72354;SDS011;60314;55.040;73.076;2022-07-12T05:57:11;6.53;;;3.22;;
72354;SDS011;60314;55.040;73.076;2022-07-12T05:59:38;5.68;;;3.22;;
72354;SDS011;60314;55.040;73.076;2022-07-12T06:02:05;4.50;;;3.40;;
72354;SDS011;60314;55.040;73.076;2022-07-12T06:04:32;4.47;;;3.28;;
72354;SDS011;60314;55.040;73.076;2022-07-12T06:06:59;5.40;;;3.38;;
72354;SDS011;60314;55.040;73.076;2022-07-12T06:09:26;4.82;;;3.28;;
72354;SDS011;60314;55.040;73.076;2022-07-12T06:11:53;4.93;;;3.50;;
72354;SDS011;60314;55.040;73.076;2022-07-12T06:14:20;5.82;;;3.35;;
72354;SDS011;60314;55.040;73.076;2022-07-12T06:16:47;4.78;;;3.40;;
72354;SDS011;60314;55.040;73.076;2022-07-12T06:19:14;7.50;;;3.42;;
72354;SDS011;60314;55.040;73.076;2022-07-12T06:21:41;11.15;;;3.78;;
72354;SDS011;60314;55.040;73.076;2022-07-12T06:24:08;8.10;;;3.20;;
72354;SDS011;60314;55.040;73.076;2022-07-12T06:26:35;5.22;;;3.60;;
72354;SDS011;60314;55.040;73.076;2022-07-12T06:29:02;6.00;;;3.50;;
72354;SDS011;60314;55.040;73.076;2022-07-12T06:31:29;6.43;;;3.60;;
72354;SDS011;60314;55.040;73.076;2022-07-12T06:33:56;5.63;;;3.25;;
72354;SDS011;60314;55.040;73.076;2022-07-12T06:36:25;4.95;;;3.45;;
72354;SDS011;60314;55.040;73.076;2022-07-12T06:38:56;4.30;;;3.00;;
72354;SDS011;60314;55.040;73.076;2022-07-12T06:41:23;5.53;;;3.20;;
72354;SDS011;60314;55.040;73.076;2022-07-12T06:43:51;5.43;;;2.90;;
72354;SDS011;60314;55.040;73.076;2022-07-12T06:46:18;5.47;;;3.28;;
72354;SDS011;60314;55.040;73.076;2022-07-12T06:48:45;6.25;;;3.50;;
72354;SDS011;60314;55.040;73.076;2022-07-12T06:51:15;8.07;;;3.50;;
72354;SDS011;60314;55.040;73.076;2022-07-12T06:53:42;6.60;;;3.63;;
72354;SDS011;60314;55.040;73.076;2022-07-12T06:56:09;5.07;;;3.50;;
72354;SDS011;60314;55.040;73.076;2022-07-12T06:58:36;5.05;;;3.53;;
72354;SDS011;60314;55.040;73.076;2022-07-12T07:01:02;4.45;;;3.35;;
72354;SDS011;60314;55.040;73.076;2022-07-12T07:03:29;5.43;;;3.55;;
72354;SDS011;60314;55.040;73.076;2022-07-12T07:06:03;4.72;;;3.00;;
72354;SDS011;60314;55.040;73.076;2022-07-12T07:08:39;5.93;;;3.70;;
72354;SDS011;60314;55.040;73.076;2022-07-12T07:11:08;8.40;;;3.95;;
72354;SDS011;60314;55.040;73.076;2022-07-12T07:13:35;23.10;;;4.72;;
72354;SDS011;60314;55.040;73.076;2022-07-12T07:16:02;8.52;;;3.05;;
72354;SDS011;60314;55.040;73.076;2022-07-12T07:18:29;5.00;;;3.17;;
72354;SDS011;60314;55.040;73.076;2022-07-12T07:20:56;5.20;;;3.13;;
72354;SDS011;60314;55.040;73.076;2022-07-12T07:23:22;7.10;;;3.28;;
72354;SDS011;60314;55.040;73.076;2022-07-12T07:25:49;5.47;;;3.05;;
72354;SDS011;60314;55.040;73.076;2022-07-12T07:28:16;16.38;;;3.70;;
72354;SDS011;60314;55.040;73.076;2022-07-12T07:30:42;4.88;;;3.30;;
72354;SDS011;60314;55.040;73.076;2022-07-12T07:33:21;5.88;;;3.30;;
72354;SDS011;60314;55.040;73.076;2022-07-12T07:35:49;5.32;;;3.42;;
72354;SDS011;60314;55.040;73.076;2022-07-12T07:38:18;4.53;;;3.05;;
72354;SDS011;60314;55.040;73.076;2022-07-12T07:40:45;4.43;;;3.40;;
72354;SDS011;60314;55.040;73.076;2022-07-12T07:43:13;5.00;;;3.28;;
72354;SDS011;60314;55.040;73.076;2022-07-12T07:45:39;7.00;;;3.50;;
72354;SDS011;60314;55.040;73.076;2022-07-12T07:48:06;5.15;;;3.35;;
72354;SDS011;60314;55.040;73.076;2022-07-12T07:50:37;5.95;;;3.38;;
72354;SDS011;60314;55.040;73.076;2022-07-12T07:53:09;6.20;;;3.30;;
72354;SDS011;60314;55.040;73.076;2022-07-12T07:55:36;6.03;;;3.38;;
72354;SDS011;60314;55.040;73.076;2022-07-12T07:58:02;4.80;;;3.20;;
72354;SDS011;60314;55.040;73.076;2022-07-12T08:00:29;4.88;;;3.47;;
72354;SDS011;60314;55.040;73.076;2022-07-12T08:02:56;6.43;;;4.28;;
72354;SDS011;60314;55.040;73.076;2022-07-12T08:05:23;6.75;;;3.60;;
72354;SDS011;60314;55.040;73.076;2022-07-12T08:07:50;5.72;;;3.80;;
72354;SDS011;60314;55.040;73.076;2022-07-12T08:10:16;5.95;;;3.47;;
72354;SDS011;60314;55.040;73.076;2022-07-12T08:12:43;5.80;;;3.70;;
72354;SDS011;60314;55.040;73.076;2022-07-12T08:15:10;5.43;;;3.90;;
72354;SDS011;60314;55.040;73.076;2022-07-12T08:17:38;5.53;;;3.70;;
72354;SDS011;60314;55.040;73.076;2022-07-12T08:20:04;5.22;;;3.45;;
72354;SDS011;60314;55.040;73.076;2022-07-12T08:22:31;4.85;;;3.72;;
72354;SDS011;60314;55.040;73.076;2022-07-12T08:24:58;5.75;;;3.97;;
72354;SDS011;60314;55.040;73.076;2022-07-12T08:27:24;4.90;;;3.67;;
72354;SDS011;60314;55.040;73.076;2022-07-12T08:29:51;6.22;;;4.10;;
72354;SDS011;60314;55.040;73.076;2022-07-12T08:32:17;5.70;;;3.83;;
72354;SDS011;60314;55.040;73.076;2022-07-12T08:34:44;6.60;;;3.67;;
72354;SDS011;60314;55.040;73.076;2022-07-12T08:37:15;4.68;;;3.70;;
72354;SDS011;60314;55.040;73.076;2022-07-12T08:39:41;5.28;;;3.97;;
72354;SDS011;60314;55.040;73.076;2022-07-12T08:42:08;5.03;;;3.20;;
72354;SDS011;60314;55.040;73.076;2022-07-12T08:44:39;5.97;;;4.05;;
72354;SDS011;60314;55.040;73.076;2022-07-12T08:47:09;6.65;;;3.90;;
72354;SDS011;60314;55.040;73.076;2022-07-12T08:49:36;4.60;;;3.50;;
72354;SDS011;60314;55.040;73.076;2022-07-12T08:52:24;5.30;;;3.40;;
72354;SDS011;60314;55.040;73.076;2022-07-12T08:54:52;6.88;;;3.75;;
72354;SDS011;60314;55.040;73.076;2022-07-12T08:57:28;6.32;;;3.92;;
72354;SDS011;60314;55.040;73.076;2022-07-12T08:59:59;46.15;;;9.18;;
72354;SDS011;60314;55.040;73.076;2022-07-12T09:02:52;6.15;;;4.10;;
72354;SDS011;60314;55.040;73.076;2022-07-12T09:05:29;6.72;;;3.58;;
72354;SDS011;60314;55.040;73.076;2022-07-12T09:08:03;24.63;;;5.00;;
72354;SDS011;60314;55.040;73.076;2022-07-12T09:10:31;5.05;;;3.75;;
72354;SDS011;60314;55.040;73.076;2022-07-12T09:12:58;7.13;;;4.43;;
72354;SDS011;60314;55.040;73.076;2022-07-12T09:15:25;5.78;;;4.05;;
72354;SDS011;60314;55.040;73.076;2022-07-12T09:17:56;7.80;;;4.10;;
72354;SDS011;60314;55.040;73.076;2022-07-12T09:20:28;7.65;;;3.92;;
72354;SDS011;60314;55.040;73.076;2022-07-12T09:23:00;6.60;;;4.15;;
72354;SDS011;60314;55.040;73.076;2022-07-12T09:25:28;7.63;;;3.90;;
72354;SDS011;60314;55.040;73.076;2022-07-12T09:27:56;10.32;;;4.30;;
72354;SDS011;60314;55.040;73.076;2022-07-12T09:30:29;7.68;;;4.40;;
72354;SDS011;60314;55.040;73.076;2022-07-12T09:32:59;11.88;;;4.00;;
72354;SDS011;60314;55.040;73.076;2022-07-12T09:41:23;4.95;;;3.90;;
72354;SDS011;60314;55.040;73.076;2022-07-12T09:43:49;9.48;;;4.35;;
72354;SDS011;60314;55.040;73.076;2022-07-12T09:46:16;26.67;;;5.78;;
72354;SDS011;60314;55.040;73.076;2022-07-12T09:48:44;32.45;;;6.10;;
72354;SDS011;60314;55.040;73.076;2022-07-12T09:51:15;10.43;;;4.32;;
72354;SDS011;60314;55.040;73.076;2022-07-12T09:53:46;7.93;;;4.32;;
72354;SDS011;60314;55.040;73.076;2022-07-12T09:56:15;14.75;;;4.35;;
72354;SDS011;60314;55.040;73.076;2022-07-12T09:58:53;15.20;;;5.03;;
72354;SDS011;60314;55.040;73.076;2022-07-12T10:01:21;19.70;;;5.70;;
72354;SDS011;60314;55.040;73.076;2022-07-12T10:03:49;13.35;;;4.60;;
72354;SDS011;60314;55.040;73.076;2022-07-12T10:06:23;7.15;;;4.18;;
72354;SDS011;60314;55.040;73.076;2022-07-12T10:08:54;8.63;;;4.20;;
72354;SDS011;60314;55.040;73.076;2022-07-12T10:11:21;6.55;;;4.20;;
72354;SDS011;60314;55.040;73.076;2022-07-12T10:13:49;8.57;;;3.78;;
72354;SDS011;60314;55.040;73.076;2022-07-12T10:16:24;5.85;;;4.30;;
72354;SDS011;60314;55.040;73.076;2022-07-12T10:21:49;7.38;;;3.97;;
72354;SDS011;60314;55.040;73.076;2022-07-12T10:29:41;6.53;;;3.78;;
72354;SDS011;60314;55.040;73.076;2022-07-12T10:32:21;7.38;;;4.00;;
72354;SDS011;60314;55.040;73.076;2022-07-12T10:35:24;5.55;;;4.20;;
72354;SDS011;60314;55.040;73.076;2022-07-12T10:40:49;6.75;;;4.05;;
72354;SDS011;60314;55.040;73.076;2022-07-12T10:43:17;5.72;;;3.90;;
72354;SDS011;60314;55.040;73.076;2022-07-12T10:46:18;14.27;;;4.47;;
72354;SDS011;60314;55.040;73.076;2022-07-12T10:48:49;8.70;;;4.05;;
72354;SDS011;60314;55.040;73.076;2022-07-12T10:51:16;7.57;;;4.78;;
72354;SDS011;60314;55.040;73.076;2022-07-12T10:53:46;7.38;;;4.68;;
72354;SDS011;60314;55.040;73.076;2022-07-12T10:56:29;6.43;;;4.05;;
72354;SDS011;60314;55.040;73.076;2022-07-12T10:58:58;5.07;;;3.92;;
72354;SDS011;60314;55.040;73.076;2022-07-12T11:01:26;5.88;;;4.07;;
72354;SDS011;60314;55.040;73.076;2022-07-12T11:06:30;7.75;;;4.80;;
72354;SDS011;60314;55.040;73.076;2022-07-12T11:09:18;8.43;;;4.07;;
72354;SDS011;60314;55.040;73.076;2022-07-12T11:11:45;5.65;;;4.00;;
72354;SDS011;60314;55.040;73.076;2022-07-12T11:14:21;7.20;;;4.45;;
72354;SDS011;60314;55.040;73.076;2022-07-12T11:16:50;7.43;;;4.32;;
72354;SDS011;60314;55.040;73.076;2022-07-12T11:19:28;5.97;;;4.20;;
72354;SDS011;60314;55.040;73.076;2022-07-12T11:21:57;10.15;;;4.93;;
72354;SDS011;60314;55.040;73.076;2022-07-12T11:24:25;7.68;;;4.55;;
72354;SDS011;60314;55.040;73.076;2022-07-12T11:26:53;9.15;;;4.38;;
72354;SDS011;60314;55.040;73.076;2022-07-12T11:29:21;6.07;;;4.57;;
72354;SDS011;60314;55.040;73.076;2022-07-12T11:31:48;7.10;;;4.68;;
72354;SDS011;60314;55.040;73.076;2022-07-12T11:34:19;9.05;;;4.57;;
72354;SDS011;60314;55.040;73.076;2022-07-12T11:36:52;8.15;;;4.80;;
72354;SDS011;60314;55.040;73.076;2022-07-12T11:39:33;5.63;;;4.63;;
72354;SDS011;60314;55.040;73.076;2022-07-12T11:42:04;23.15;;;5.97;;
72354;SDS011;60314;55.040;73.076;2022-07-12T11:44:44;6.38;;;4.20;;
72354;SDS011;60314;55.040;73.076;2022-07-12T11:47:20;7.30;;;4.97;;
72354;SDS011;60314;55.040;73.076;2022-07-12T11:50:06;7.65;;;4.63;;
72354;SDS011;60314;55.040;73.076;2022-07-12T11:52:34;6.55;;;4.90;;
72354;SDS011;60314;55.040;73.076;2022-07-12T11:55:01;8.00;;;4.45;;
72354;SDS011;60314;55.040;73.076;2022-07-12T11:57:33;9.23;;;5.65;;
72354;SDS011;60314;55.040;73.076;2022-07-12T12:00:19;8.18;;;5.03;;
72354;SDS011;60314;55.040;73.076;2022-07-12T12:02:50;8.32;;;4.57;;
72354;SDS011;60314;55.040;73.076;2022-07-12T12:05:18;7.45;;;5.25;;
72354;SDS011;60314;55.040;73.076;2022-07-12T12:07:50;7.78;;;5.38;;
72354;SDS011;60314;55.040;73.076;2022-07-12T12:10:22;7.82;;;4.88;;
72354;SDS011;60314;55.040;73.076;2022-07-12T12:12:58;6.40;;;5.05;;
72354;SDS011;60314;55.040;73.076;2022-07-12T12:15:32;18.08;;;4.85;;
72354;SDS011;60314;55.040;73.076;2022-07-12T12:18:03;9.25;;;5.10;;
72354;SDS011;60314;55.040;73.076;2022-07-12T12:20:35;9.75;;;5.00;;
72354;SDS011;60314;55.040;73.076;2022-07-12T12:23:17;8.05;;;4.78;;
72354;SDS011;60314;55.040;73.076;2022-07-12T12:25:44;39.00;;;6.93;;
72354;SDS011;60314;55.040;73.076;2022-07-12T12:28:14;13.30;;;5.00;;
72354;SDS011;60314;55.040;73.076;2022-07-12T12:36:24;6.45;;;4.45;;
72354;SDS011;60314;55.040;73.076;2022-07-12T12:38:52;8.20;;;4.70;;
72354;SDS011;60314;55.040;73.076;2022-07-12T12:41:20;9.85;;;5.30;;
72354;SDS011;60314;55.040;73.076;2022-07-12T12:43:57;8.52;;;4.80;;
72354;SDS011;60314;55.040;73.076;2022-07-12T12:49:16;6.53;;;4.85;;
72354;SDS011;60314;55.040;73.076;2022-07-12T12:51:53;8.05;;;4.97;;
72354;SDS011;60314;55.040;73.076;2022-07-12T12:54:34;10.93;;;5.35;;
72354;SDS011;60314;55.040;73.076;2022-07-12T12:57:02;8.95;;;5.70;;
72354;SDS011;60314;55.040;73.076;2022-07-12T12:59:33;15.52;;;5.85;;
72354;SDS011;60314;55.040;73.076;2022-07-12T13:02:01;7.32;;;5.30;;
72354;SDS011;60314;55.040;73.076;2022-07-12T13:04:33;9.48;;;5.18;;
72354;SDS011;60314;55.040;73.076;2022-07-12T13:07:10;11.45;;;5.10;;
72354;SDS011;60314;55.040;73.076;2022-07-12T13:09:46;7.88;;;4.30;;
72354;SDS011;60314;55.040;73.076;2022-07-12T13:12:13;5.95;;;4.75;;
72354;SDS011;60314;55.040;73.076;2022-07-12T13:14:39;7.63;;;4.50;;
72354;SDS011;60314;55.040;73.076;2022-07-12T13:17:07;8.68;;;4.88;;
72354;SDS011;60314;55.040;73.076;2022-07-12T13:19:33;8.00;;;4.68;;
72354;SDS011;60314;55.040;73.076;2022-07-12T13:22:00;6.78;;;4.60;;
72354;SDS011;60314;55.040;73.076;2022-07-12T13:24:37;8.27;;;4.78;;
72354;SDS011;60314;55.040;73.076;2022-07-12T13:27:13;6.57;;;4.35;;
72354;SDS011;60314;55.040;73.076;2022-07-12T13:29:41;7.85;;;4.38;;
72354;SDS011;60314;55.040;73.076;2022-07-12T13:32:09;7.15;;;4.38;;
72354;SDS011;60314;55.040;73.076;2022-07-12T13:34:36;9.30;;;4.40;;
72354;SDS011;60314;55.040;73.076;2022-07-12T13:37:08;6.18;;;4.00;;
72354;SDS011;60314;55.040;73.076;2022-07-12T13:39:44;6.88;;;4.70;;
72354;SDS011;60314;55.040;73.076;2022-07-12T13:42:28;9.18;;;3.95;;
72354;SDS011;60314;55.040;73.076;2022-07-12T13:44:55;6.75;;;3.78;;
72354;SDS011;60314;55.040;73.076;2022-07-12T13:47:22;5.75;;;4.00;;
72354;SDS011;60314;55.040;73.076;2022-07-12T13:49:55;7.65;;;3.60;;
72354;SDS011;60314;55.040;73.076;2022-07-12T13:52:21;5.80;;;3.58;;
72354;SDS011;60314;55.040;73.076;2022-07-12T13:54:47;6.80;;;3.42;;
72354;SDS011;60314;55.040;73.076;2022-07-12T13:57:14;6.47;;;3.42;;
72354;SDS011;60314;55.040;73.076;2022-07-12T13:59:41;9.35;;;3.80;;
72354;SDS011;60314;55.040;73.076;2022-07-12T14:02:07;5.30;;;3.50;;
72354;SDS011;60314;55.040;73.076;2022-07-12T14:04:35;9.65;;;3.65;;
72354;SDS011;60314;55.040;73.076;2022-07-12T14:07:01;7.10;;;2.97;;
72354;SDS011;60314;55.040;73.076;2022-07-12T14:09:28;5.28;;;3.55;;
72354;SDS011;60314;55.040;73.076;2022-07-12T14:14:28;5.50;;;2.50;;
72354;SDS011;60314;55.040;73.076;2022-07-12T14:17:32;5.80;;;3.00;;
72354;SDS011;60314;55.040;73.076;2022-07-12T14:19:59;5.40;;;3.00;;
72354;SDS011;60314;55.040;73.076;2022-07-12T14:22:27;6.13;;;2.70;;
72354;SDS011;60314;55.040;73.076;2022-07-12T14:24:55;6.60;;;3.00;;
72354;SDS011;60314;55.040;73.076;2022-07-12T14:27:22;5.65;;;3.08;;
72354;SDS011;60314;55.040;73.076;2022-07-12T14:29:49;4.40;;;2.85;;
72354;SDS011;60314;55.040;73.076;2022-07-12T14:32:21;6.13;;;3.13;;
72354;SDS011;60314;55.040;73.076;2022-07-12T14:34:47;8.93;;;2.88;;
72354;SDS011;60314;55.040;73.076;2022-07-12T14:37:23;5.30;;;2.72;;
72354;SDS011;60314;55.040;73.076;2022-07-12T14:39:50;4.45;;;2.97;;
72354;SDS011;60314;55.040;73.076;2022-07-12T14:42:16;6.03;;;2.95;;
72354;SDS011;60314;55.040;73.076;2022-07-12T14:44:43;5.18;;;2.60;;
72354;SDS011;60314;55.040;73.076;2022-07-12T14:47:09;5.88;;;2.50;;
72354;SDS011;60314;55.040;73.076;2022-07-12T14:49:56;4.07;;;2.63;;
72354;SDS011;60314;55.040;73.076;2022-07-12T14:52:23;8.00;;;2.80;;
72354;SDS011;60314;55.040;73.076;2022-07-12T14:54:49;11.25;;;2.65;;
72354;SDS011;60314;55.040;73.076;2022-07-12T14:57:16;4.18;;;2.47;;
72354;SDS011;60314;55.040;73.076;2022-07-12T14:59:43;6.07;;;2.50;;
72354;SDS011;60314;55.040;73.076;2022-07-12T15:02:10;4.00;;;2.33;;
72354;SDS011;60314;55.040;73.076;2022-07-12T15:04:39;5.07;;;2.17;;
72354;SDS011;60314;55.040;73.076;2022-07-12T15:07:07;4.80;;;2.22;;
72354;SDS011;60314;55.040;73.076;2022-07-12T15:09:38;3.75;;;2.30;;
72354;SDS011;60314;55.040;73.076;2022-07-12T15:12:05;9.88;;;2.00;;
72354;SDS011;60314;55.040;73.076;2022-07-12T15:14:32;12.75;;;2.20;;
72354;SDS011;60314;55.040;73.076;2022-07-12T15:16:58;2.78;;;1.50;;
72354;SDS011;60314;55.040;73.076;2022-07-12T15:19:25;5.47;;;1.80;;
72354;SDS011;60314;55.040;73.076;2022-07-12T15:21:51;4.97;;;1.80;;